Mogadore, Ohio
Current Conditions -  °F | °C
As of 8:01 AM on Tuesday 21 Oct 2014 (Local Time) from KAKR Reporting Station
Light Rain Light Rain  
Wind Chill: 51°   Ceiling: 700
Heat Index: 51°   Visibility: 5mi
Dew Point: 48°   Wind: 7mph
Humidity: 89%   Direction: 330°NNW
Pressure: 29.88"   Gusts: NA
Location:  41.05°N, 81.4°W
Report Text: KAKR 211201Z AUTO 33006KT 5SM -RA BR BKN007 BKN016 OVC044 11/09 A2988 RMK AO2 P0000 T01060089
Loading
Personal Weather Stations






























Interactive Weather Map
Tropical Storm Tracking
New forecast layout! Learn more

10-Day Weather Forecast

Advertisements
Track Severe Weather on mobile